Time;durP1;ratioP1;P1;durP2;ratioP2;P2;SDS_P1;SDS_P2;PMS_P1;PMS_P2;Temp;Humidity;BMP_temperature;BMP_pressure;BME280_temperature;BME280_humidity;BME280_pressure;Samples;Min_cycle;Max_cycle;Signal;HPM_P1;HPM_P2
2022/08/01 00:00:02;;;;;;;12.60;6.93;;;;;;;28.48;49.58;101759.31;5096256;28;20102;-76
2022/08/01 00:02:28;;;;;;;10.98;6.38;;;;;;;29.43;47.54;101762.25;5096162;28;20051;-76
2022/08/01 00:04:54;;;;;;;11.27;6.80;;;;;;;29.41;47.92;101757.94;5113577;28;20446;-76
2022/08/01 00:07:20;;;;;;;12.48;7.10;;;;;;;28.37;50.37;101767.25;5114620;28;20463;-76
2022/08/01 00:09:45;;;;;;;9.45;5.88;;;;;;;28.89;48.43;101765.34;5095922;28;20024;-76
2022/08/01 00:12:11;;;;;;;13.38;7.47;;;;;;;28.72;49.78;101766.59;5095033;28;20090;-76
2022/08/01 00:14:36;;;;;;;12.63;6.93;;;;;;;28.90;48.53;101762.56;5095982;28;20492;-76
2022/08/01 00:17:02;;;;;;;12.95;7.10;;;;;;;30.20;45.74;101765.38;5095663;28;20112;-76
2022/08/01 00:19:27;;;;;;;12.35;6.47;;;;;;;28.27;50.59;101767.94;5095143;28;20031;-75
2022/08/01 00:21:53;;;;;;;13.25;7.00;;;;;;;28.75;49.05;101761.00;5095684;28;20462;-75
2022/08/01 00:24:18;;;;;;;10.35;6.32;;;;;;;28.75;48.65;101771.75;5113390;28;20024;-76
2022/08/01 00:26:43;;;;;;;11.90;6.63;;;;;;;29.01;48.80;101771.69;5095167;28;20043;-74
2022/08/01 00:29:09;;;;;;;12.93;6.85;;;;;;;28.71;49.39;101776.47;5095606;28;20024;-75
2022/08/01 00:31:34;;;;;;;12.98;6.93;;;;;;;28.80;49.95;101766.03;5112925;28;20108;-75
2022/08/01 00:33:59;;;;;;;10.20;6.15;;;;;;;29.81;46.47;101775.59;5095289;28;20395;-76
2022/08/01 00:36:25;;;;;;;12.70;6.65;;;;;;;29.82;46.77;101772.78;5095048;28;20059;-76
2022/08/01 00:38:50;;;;;;;16.55;8.00;;;;;;;30.11;45.49;101775.06;5094869;28;20028;-75
2022/08/01 00:41:15;;;;;;;14.27;7.63;;;;;;;30.07;45.76;101770.91;5113624;28;20106;-76
2022/08/01 00:43:41;;;;;;;12.63;7.43;;;;;;;29.68;47.51;101775.69;5091434;28;20047;-76
2022/08/01 00:46:06;;;;;;;14.55;7.43;;;;;;;29.66;47.29;101775.78;5092597;28;20020;-76
2022/08/01 00:48:32;;;;;;;15.23;7.97;;;;;;;29.95;46.21;101773.59;5091861;28;20437;-76
2022/08/01 00:50:57;;;;;;;13.73;7.18;;;;;;;28.71;49.03;101770.25;5091724;28;20019;-75
2022/08/01 00:53:22;;;;;;;12.82;7.22;;;;;;;28.92;49.45;101768.69;5092306;28;20035;-76
2022/08/01 00:55:48;;;;;;;11.60;7.10;;;;;;;30.34;45.89;101762.47;5091787;28;20035;-76
2022/08/01 00:58:14;;;;;;;11.55;5.63;;;;;;;29.88;45.92;101761.56;5092986;28;20073;-76
2022/08/01 01:00:39;;;;;;;12.05;6.38;;;;;;;30.11;45.72;101766.97;5090994;28;20490;-76
2022/08/01 01:03:05;;;;;;;9.32;5.75;;;;;;;29.39;47.72;101759.91;5091318;28;20103;-75
2022/08/01 01:05:35;;;;;;;13.30;5.97;;;;;;;28.73;49.67;101765.63;5091504;28;20039;-76
2022/08/01 01:08:26;;;;;;;12.90;6.07;;;;;;;29.30;48.77;101766.00;5091981;28;20066;-75
2022/08/01 01:10:57;;;;;;;10.75;5.60;;;;;;;27.67;52.56;101772.03;5091512;28;20028;-76
2022/08/01 01:13:37;;;;;;;11.45;5.20;;;;;;;29.79;48.00;101768.47;5091355;28;20486;-76
2022/08/01 01:16:09;;;;;;;9.15;5.03;;;;;;;28.14;53.66;101759.00;5092727;28;20028;-76
2022/08/01 01:18:41;;;;;;;9.70;5.25;;;;;;;29.88;48.22;101756.19;5092546;28;20028;-76
2022/08/01 01:21:19;;;;;;;13.00;5.75;;;;;;;30.10;46.88;101758.06;5091005;28;20024;-76
2022/08/01 01:23:44;;;;;;;12.77;5.75;;;;;;;30.73;44.96;101759.41;5091160;28;20024;-76
2022/08/01 01:26:23;;;;;;;12.85;5.85;;;;;;;30.34;46.29;101756.22;5091425;28;20081;-76
2022/08/01 01:29:11;;;;;;;13.30;6.18;;;;;;;30.80;44.99;101747.13;5091765;28;20143;-75
2022/08/01 01:31:45;;;;;;;12.50;5.30;;;;;;;28.83;49.81;101755.06;5091254;28;20462;-76
2022/08/01 01:34:13;;;;;;;10.98;5.97;;;;;;;29.73;47.69;101751.94;5091115;28;20023;-76
2022/08/01 01:36:40;;;;;;;14.25;5.85;;;;;;;29.43;48.10;101756.03;5091471;28;20028;-76
2022/08/01 01:39:06;;;;;;;9.40;4.75;;;;;;;29.47;47.31;101762.88;5091128;28;20035;-76
2022/08/01 01:41:35;;;;;;;9.30;5.47;;;;;;;29.99;46.75;101767.94;5092319;28;20088;-76
2022/08/01 01:44:01;;;;;;;15.68;5.20;;;;;;;30.52;45.63;101764.72;5090068;28;20036;-75
2022/08/01 01:46:29;;;;;;;12.45;5.35;;;;;;;29.65;47.67;101770.50;5090756;28;20052;-75
2022/08/01 01:48:57;;;;;;;9.15;4.72;;;;;;;29.00;49.20;101769.94;5089727;28;20055;-76
2022/08/01 01:51:25;;;;;;;6.38;4.30;;;;;;;28.84;49.13;101763.00;5090931;28;20028;-75
2022/08/01 01:53:54;;;;;;;9.18;4.30;;;;;;;28.84;49.48;101771.09;5090779;28;20464;-75
2022/08/01 01:56:20;;;;;;;8.15;4.10;;;;;;;29.71;47.41;101765.53;5089836;28;20415;-75
2022/08/01 01:58:50;;;;;;;7.28;3.33;;;;;;;28.59;50.72;101769.25;5092085;28;20039;-75
2022/08/01 02:01:18;;;;;;;7.43;3.88;;;;;;;29.92;46.33;101768.44;5091967;28;20032;-76
2022/08/01 02:03:44;;;;;;;6.47;3.22;;;;;;;29.78;47.65;101776.69;5091184;28;20039;-75
2022/08/01 02:06:13;;;;;;;6.78;3.28;;;;;;;30.43;45.29;101767.13;5091927;28;20031;-76
2022/08/01 02:08:41;;;;;;;5.03;2.92;;;;;;;30.34;46.15;101772.41;5090639;28;20024;-75
2022/08/01 02:11:19;;;;;;;5.22;3.47;;;;;;;30.02;46.59;101770.38;5089988;28;20024;-76
2022/08/01 02:13:58;;;;;;;6.72;3.15;;;;;;;30.49;45.46;101765.81;5090563;28;20111;-76
2022/08/01 02:16:28;;;;;;;5.32;3.05;;;;;;;30.20;45.85;101768.97;5090601;28;20019;-75
2022/08/01 02:18:53;;;;;;;6.53;3.13;;;;;;;30.22;45.88;101766.97;5091036;28;20031;-76
2022/08/01 02:21:34;;;;;;;3.92;2.92;;;;;;;29.52;47.41;101768.75;5090603;28;20024;-76
2022/08/01 02:24:29;;;;;;;3.05;2.65;;;;;;;29.58;47.10;101771.00;5090906;28;20035;-76
2022/08/01 02:26:58;;;;;;;8.05;3.00;;;;;;;30.22;45.76;101769.69;5061835;28;20032;-76
2022/08/01 02:29:32;;;;;;;6.40;2.67;;;;;;;30.21;45.33;101768.00;5090603;28;20031;-75
2022/08/01 02:32:00;;;;;;;3.50;2.95;;;;;;;30.16;45.13;101770.19;5089691;28;20035;-76
2022/08/01 02:34:31;;;;;;;7.43;3.70;;;;;;;30.66;43.74;101766.28;5090613;28;20508;-75
2022/08/01 02:37:00;;;;;;;5.30;2.90;;;;;;;30.04;45.69;101765.75;5090521;28;20043;-76
2022/08/01 02:39:28;;;;;;;9.75;2.75;;;;;;;30.22;45.03;101772.38;5090869;28;20650;-76
2022/08/01 02:41:57;;;;;;;5.07;3.55;;;;;;;29.51;46.40;101767.06;5090227;28;20022;-76
2022/08/01 02:44:37;;;;;;;4.22;3.13;;;;;;;30.20;44.82;101768.09;5090230;28;20123;-76
2022/08/01 02:47:03;;;;;;;5.25;3.13;;;;;;;30.37;44.38;101788.34;5089753;28;20024;-76
2022/08/01 02:49:35;;;;;;;6.32;3.28;;;;;;;29.54;46.30;101774.03;5091597;28;20034;-75
2022/08/01 02:52:06;;;;;;;5.18;3.70;;;;;;;29.56;46.85;101777.47;5090075;28;20125;-75
2022/08/01 02:54:33;;;;;;;4.57;3.42;;;;;;;30.39;44.76;101778.25;5091226;28;20385;-75
2022/08/01 02:57:01;;;;;;;7.57;3.90;;;;;;;29.85;45.26;101771.72;5090236;28;20058;-76
2022/08/01 02:59:27;;;;;;;7.20;3.50;;;;;;;29.09;46.45;101769.28;5091671;28;20512;-76
2022/08/01 03:01:57;;;;;;;4.30;3.17;;;;;;;28.91;47.57;101761.59;5095195;28;20070;-76
2022/08/01 03:04:24;;;;;;;3.95;2.97;;;;;;;29.48;46.09;101759.19;5095115;28;20016;-75
2022/08/01 03:06:58;;;;;;;6.07;3.22;;;;;;;29.63;45.64;101767.09;5094245;28;20035;-76
2022/08/01 03:09:25;;;;;;;5.28;3.40;;;;;;;29.80;44.96;101774.75;5093819;28;20078;-75
2022/08/01 03:11:52;;;;;;;6.95;3.10;;;;;;;29.13;46.63;101781.53;5094956;28;20030;-76
2022/08/01 03:14:20;;;;;;;5.13;3.55;;;;;;;28.96;46.91;101784.59;5093061;28;20530;-75
2022/08/01 03:16:47;;;;;;;6.22;3.70;;;;;;;29.44;45.96;101790.91;5093399;28;20552;-75
2022/08/01 03:19:14;;;;;;;7.00;3.22;;;;;;;29.13;46.23;101784.22;5094830;28;20104;-75
2022/08/01 03:21:42;;;;;;;10.13;3.45;;;;;;;29.23;46.27;101793.31;5092739;28;20105;-75
2022/08/01 03:24:09;;;;;;;3.92;3.25;;;;;;;29.21;46.11;101789.00;5093510;28;20042;-75
2022/08/01 03:26:36;;;;;;;5.40;3.50;;;;;;;29.20;46.33;101793.56;5093554;28;20110;-75
2022/08/01 03:29:08;;;;;;;5.00;3.58;;;;;;;29.21;46.36;101789.00;5093952;28;20020;-75
2022/08/01 03:31:36;;;;;;;4.05;3.60;;;;;;;27.70;49.19;101789.78;5093183;28;20020;-74
2022/08/01 03:34:02;;;;;;;7.35;3.70;;;;;;;27.83;50.97;101790.63;5094517;28;20020;-75
2022/08/01 03:36:30;;;;;;;5.50;3.35;;;;;;;28.81;47.88;101781.19;5093866;28;20030;-75
2022/08/01 03:38:58;;;;;;;4.32;3.60;;;;;;;29.10;46.53;101785.31;5093121;28;20035;-76
2022/08/01 03:41:28;;;;;;;5.00;3.67;;;;;;;29.42;46.17;101792.00;5092512;28;20020;-75
2022/08/01 03:44:01;;;;;;;5.90;3.47;;;;;;;29.47;45.76;101792.50;5092586;28;20044;-75
2022/08/01 03:46:35;;;;;;;4.13;3.10;;;;;;;30.07;43.92;101792.47;5093101;28;20024;-75
2022/08/01 03:49:07;;;;;;;7.68;3.58;;;;;;;29.88;44.39;101798.41;5092217;28;20024;-76
2022/08/01 03:51:33;;;;;;;5.13;3.28;;;;;;;29.72;44.84;101786.09;5093184;28;20066;-76
2022/08/01 03:54:00;;;;;;;7.00;4.00;;;;;;;29.93;43.90;101791.69;5094069;28;20024;-76
2022/08/01 03:56:27;;;;;;;4.35;3.20;;;;;;;29.52;45.18;101787.59;5092305;28;20118;-76
2022/08/01 03:58:54;;;;;;;4.97;3.03;;;;;;;29.93;44.41;101780.91;5092795;28;20030;-76
2022/08/01 04:01:19;;;;;;;5.18;3.65;;;;;;;30.08;43.98;101788.78;5094264;28;20055;-76
2022/08/01 04:03:45;;;;;;;4.60;3.08;;;;;;;29.94;44.10;101788.03;5091808;28;20476;-77
2022/08/01 04:06:13;;;;;;;4.90;2.83;;;;;;;29.74;44.47;101786.81;5093024;28;20024;-76
2022/08/01 04:08:39;;;;;;;3.03;2.72;;;;;;;30.07;44.01;101792.47;5094015;28;20035;-77
2022/08/01 04:11:05;;;;;;;3.20;2.65;;;;;;;30.03;44.09;101788.28;5092913;28;20026;-76
2022/08/01 04:13:32;;;;;;;3.97;2.92;;;;;;;29.89;44.55;101784.81;5092727;28;20024;-76
2022/08/01 04:15:58;;;;;;;7.47;3.10;;;;;;;29.09;45.80;101790.81;5092698;28;20357;-77
2022/08/01 04:18:23;;;;;;;4.00;2.80;;;;;;;28.09;48.32;101790.72;5091999;28;20028;-76
2022/08/01 04:20:48;;;;;;;5.50;2.50;;;;;;;29.58;45.31;101781.78;5092510;28;20027;-76
2022/08/01 04:23:17;;;;;;;3.35;2.70;;;;;;;29.87;43.79;101784.09;5092486;28;20028;-76
2022/08/01 04:25:44;;;;;;;3.00;2.70;;;;;;;29.84;43.50;101789.69;5091881;28;20023;-76
2022/08/01 04:28:16;;;;;;;7.60;3.65;;;;;;;29.34;44.78;101791.72;5092373;28;20063;-76
2022/08/01 04:30:44;;;;;;;3.92;2.80;;;;;;;29.34;45.30;101789.84;5092789;28;20098;-77
2022/08/01 04:33:15;;;;;;;7.68;3.05;;;;;;;29.20;44.84;101796.25;5092463;28;20058;-76
2022/08/01 04:35:45;;;;;;;3.78;2.53;;;;;;;29.48;44.55;101796.91;5092187;28;20024;-76
2022/08/01 04:38:13;;;;;;;3.30;2.72;;;;;;;29.34;45.05;101791.72;5092863;28;20028;-76
2022/08/01 04:40:40;;;;;;;3.38;2.83;;;;;;;29.18;45.24;101798.22;5093520;28;20495;-76
2022/08/01 04:43:07;;;;;;;5.22;2.40;;;;;;;29.23;45.43;101803.22;5092040;28;20052;-76
2022/08/01 04:45:32;;;;;;;4.88;3.47;;;;;;;29.03;45.70;101805.56;5092406;28;20073;-77
2022/08/01 04:47:59;;;;;;;5.20;2.45;;;;;;;28.36;47.41;101803.19;5092168;28;20024;-76
2022/08/01 04:50:25;;;;;;;3.03;2.50;;;;;;;28.67;47.22;101809.09;5091963;28;20484;-76
2022/08/01 04:52:51;;;;;;;5.60;2.47;;;;;;;29.31;45.06;101806.25;5091600;28;20073;-76
2022/08/01 04:55:17;;;;;;;3.85;2.80;;;;;;;29.82;43.67;101815.88;5091947;28;20084;-76
2022/08/01 04:57:45;;;;;;;3.40;2.30;;;;;;;29.41;45.17;101811.81;5091688;28;20031;-76
2022/08/01 05:00:11;;;;;;;4.03;2.92;;;;;;;29.13;45.72;101812.94;5092641;28;20032;-76
2022/08/01 05:02:36;;;;;;;2.55;2.17;;;;;;;29.26;45.98;101814.69;5091730;28;20027;-77
2022/08/01 05:05:02;;;;;;;3.70;2.20;;;;;;;29.72;45.16;101814.88;5091898;28;20114;-76
2022/08/01 05:07:27;;;;;;;5.20;2.53;;;;;;;29.30;46.15;101814.44;5091061;28;20042;-76
2022/08/01 05:09:53;;;;;;;3.42;2.58;;;;;;;29.65;45.27;101813.59;5092914;28;20024;-76
2022/08/01 05:12:18;;;;;;;3.30;2.00;;;;;;;29.69;45.66;101818.66;5092791;28;20031;-76
2022/08/01 05:14:44;;;;;;;6.03;2.33;;;;;;;29.54;45.72;101817.13;5092261;28;20087;-76
2022/08/01 05:17:10;;;;;;;3.38;2.38;;;;;;;29.75;45.36;101811.94;5092917;28;20028;-76
2022/08/01 05:19:37;;;;;;;4.40;2.20;;;;;;;29.92;44.37;101816.94;5091712;28;20165;-77
2022/08/01 05:22:07;;;;;;;2.47;1.90;;;;;;;29.63;45.62;101815.56;5090139;28;20027;-76
2022/08/01 05:24:33;;;;;;;3.97;2.22;;;;;;;30.11;43.78;101815.50;5091503;28;20024;-76
2022/08/01 05:26:59;;;;;;;4.22;2.30;;;;;;;30.48;43.61;101807.22;5092053;28;20103;-76
2022/08/01 05:29:26;;;;;;;4.28;1.83;;;;;;;30.40;43.82;101815.03;5091489;28;20027;-76
2022/08/01 05:31:52;;;;;;;2.50;1.98;;;;;;;29.93;44.63;101818.63;5091308;28;20452;-76
2022/08/01 05:34:18;;;;;;;4.13;2.00;;;;;;;30.78;43.11;101821.94;5090699;28;20111;-76
2022/08/01 05:36:44;;;;;;;2.15;1.95;;;;;;;30.52;43.88;101821.34;5092545;28;20487;-76
2022/08/01 05:39:10;;;;;;;3.40;2.10;;;;;;;30.37;43.37;101816.13;5092315;28;20024;-76
2022/08/01 05:41:36;;;;;;;4.25;2.13;;;;;;;30.74;42.87;101817.78;5090542;28;20046;-76
2022/08/01 05:44:03;;;;;;;4.32;2.05;;;;;;;29.92;44.28;101816.94;5090650;28;20044;-76
2022/08/01 05:46:30;;;;;;;3.85;2.15;;;;;;;30.03;44.48;101823.31;5090774;28;20035;-76
2022/08/01 05:48:56;;;;;;;5.53;2.30;;;;;;;30.43;44.13;101826.47;5091718;28;20020;-76
2022/08/01 05:51:21;;;;;;;3.03;2.08;;;;;;;30.65;42.98;101829.31;5090842;28;20023;-76
2022/08/01 05:53:47;;;;;;;4.30;2.30;;;;;;;30.04;44.72;101830.44;5092180;28;20077;-76
2022/08/01 05:56:12;;;;;;;3.38;2.40;;;;;;;30.56;43.33;101826.34;5090019;28;20391;-76
2022/08/01 05:58:38;;;;;;;6.30;2.70;;;;;;;30.20;44.15;101828.25;5090938;28;20027;-76
2022/08/01 06:01:03;;;;;;;3.97;2.47;;;;;;;30.98;42.70;101831.09;5090952;28;20472;-76
2022/08/01 06:03:31;;;;;;;3.15;2.30;;;;;;;30.58;43.58;101835.22;5090053;28;20098;-76
2022/08/01 06:05:57;;;;;;;4.43;2.72;;;;;;;29.69;45.60;101833.94;5090752;28;20391;-75
2022/08/01 06:08:22;;;;;;;3.05;2.10;;;;;;;29.56;46.25;101836.72;5090370;28;20027;-74
2022/08/01 06:10:47;;;;;;;2.53;1.48;;;;;;;27.86;51.15;101838.78;5090828;28;20490;-73
2022/08/01 06:13:13;;;;;;;4.38;1.88;;;;;;;29.07;48.04;101846.56;5090284;28;20020;-74
2022/08/01 06:15:38;;;;;;;3.90;1.73;;;;;;;29.26;48.11;101841.59;5091655;28;20020;-74
2022/08/01 06:18:04;;;;;;;3.13;1.23;;;;;;;28.09;50.30;101852.50;5089414;28;20453;-74
2022/08/01 06:20:30;;;;;;;2.45;1.52;;;;;;;29.42;47.75;101848.53;5090218;28;20024;-74
2022/08/01 06:22:56;;;;;;;1.95;1.50;;;;;;;28.24;50.46;101847.91;5090136;28;20030;-74
2022/08/01 06:25:21;;;;;;;2.63;1.70;;;;;;;28.63;50.30;101842.53;5089409;28;20450;-74
2022/08/01 06:27:47;;;;;;;2.55;2.00;;;;;;;29.29;47.70;101835.09;5090275;28;20400;-74
2022/08/01 06:30:13;;;;;;;2.10;1.90;;;;;;;29.57;47.94;101844.69;5089422;28;20026;-74
2022/08/01 06:32:38;;;;;;;2.35;2.15;;;;;;;29.17;48.18;101842.25;5092008;28;20476;-75
2022/08/01 06:35:04;;;;;;;3.30;2.60;;;;;;;29.60;47.13;101849.84;5093351;28;20036;-75
2022/08/01 06:37:31;;;;;;;2.67;2.47;;;;;;;29.82;46.91;101853.59;5093521;28;20472;-75
2022/08/01 06:40:03;;;;;;;4.05;2.58;;;;;;;29.94;46.27;101852.69;5094277;28;20085;-75
2022/08/01 06:42:31;;;;;;;4.05;3.13;;;;;;;29.68;46.68;101857.34;5094279;28;20024;-75
2022/08/01 06:44:57;;;;;;;3.95;3.08;;;;;;;27.78;51.59;101862.63;5095008;28;20038;-74
2022/08/01 06:47:22;;;;;;;3.80;3.42;;;;;;;28.16;51.97;101867.22;5094227;28;20383;-75
2022/08/01 06:49:47;;;;;;;5.63;3.85;;;;;;;28.56;50.93;101856.41;5094036;28;20028;-75
2022/08/01 06:52:13;;;;;;;6.68;4.03;;;;;;;27.99;53.57;101859.44;5093611;28;20020;-75
2022/08/01 06:54:38;;;;;;;7.07;4.57;;;;;;;29.53;48.01;101864.72;5095350;28;20498;-74
2022/08/01 06:57:06;;;;;;;7.10;4.95;;;;;;;28.33;51.23;101867.91;5093858;28;20115;-75
2022/08/01 06:59:32;;;;;;;8.55;5.78;;;;;;;28.72;51.42;101868.81;5093171;28;20020;-74
2022/08/01 07:01:57;;;;;;;10.07;5.88;;;;;;;28.04;53.87;101868.06;5093898;28;20027;-75
2022/08/01 07:04:23;;;;;;;9.68;6.30;;;;;;;28.61;51.56;101867.69;5093619;28;20043;-75
2022/08/01 07:06:48;;;;;;;11.90;6.30;;;;;;;27.54;54.03;101876.69;5093209;28;20031;-75
2022/08/01 07:09:14;;;;;;;16.77;5.82;;;;;;;28.53;51.43;101879.97;5095004;28;20028;-75
2022/08/01 07:11:39;;;;;;;16.33;5.70;;;;;;;26.69;57.26;101889.19;5093771;28;20036;-75
2022/08/01 07:14:04;;;;;;;13.75;5.97;;;;;;;27.97;53.03;101888.22;5092913;28;20024;-75
2022/08/01 07:16:30;;;;;;;14.02;6.55;;;;;;;26.45;59.17;101892.44;5093622;28;20039;-75
2022/08/01 07:18:55;;;;;;;10.27;6.65;;;;;;;26.65;57.24;101887.66;5093658;28;20043;-75
2022/08/01 07:21:20;;;;;;;10.25;6.55;;;;;;;27.03;58.22;101897.88;5094228;28;20036;-76
2022/08/01 07:23:46;;;;;;;15.23;6.93;;;;;;;28.49;51.80;101895.44;5093229;28;20028;-75
2022/08/01 07:26:12;;;;;;;16.67;7.65;;;;;;;27.05;57.34;101902.19;5093610;28;20106;-75
2022/08/01 07:28:37;;;;;;;11.75;6.78;;;;;;;27.03;57.04;101903.22;5094170;28;20042;-75
2022/08/01 07:31:03;;;;;;;13.23;6.05;;;;;;;27.17;55.53;101905.88;5093381;28;20472;-75
2022/08/01 07:33:28;;;;;;;10.55;5.80;;;;;;;27.97;53.30;101893.59;5093856;28;20020;-75
2022/08/01 07:35:54;;;;;;;13.80;5.40;;;;;;;26.50;56.21;101913.59;5093158;28;20016;-74
2022/08/01 07:38:19;;;;;;;14.82;5.03;;;;;;;27.84;51.97;101904.31;5094592;28;20523;-75
2022/08/01 07:40:45;;;;;;;11.85;4.75;;;;;;;27.76;53.01;101912.88;5092603;28;20114;-75
2022/08/01 07:43:10;;;;;;;17.85;4.70;;;;;;;28.63;49.87;101912.44;5093117;28;20434;-76
2022/08/01 07:45:35;;;;;;;14.48;4.88;;;;;;;27.17;52.40;101924.66;5091931;28;20024;-74
2022/08/01 07:48:05;;;;;;;15.60;4.55;;;;;;;27.82;51.91;101917.84;5093858;28;20052;-75
2022/08/01 07:50:31;;;;;;;21.00;4.47;;;;;;;27.26;53.68;101921.41;5092963;28;20077;-75
2022/08/01 07:52:57;;;;;;;15.45;4.30;;;;;;;28.52;48.25;101922.13;5092760;28;20024;-74
2022/08/01 07:55:22;;;;;;;15.93;4.35;;;;;;;27.17;52.93;101930.03;5093532;28;20468;-75
2022/08/01 07:57:47;;;;;;;11.10;3.30;;;;;;;27.02;53.51;101939.06;5093043;28;20426;-76
2022/08/01 08:00:13;;;;;;;7.47;2.88;;;;;;;27.38;53.39;101941.28;5094014;28;20028;-76
2022/08/01 08:02:39;;;;;;;10.98;3.33;;;;;;;28.11;49.24;101936.56;5092045;28;20042;-75
2022/08/01 08:05:06;;;;;;;10.90;2.40;;;;;;;27.38;52.84;101941.28;5092741;28;20032;-75
2022/08/01 08:07:31;;;;;;;11.63;3.00;;;;;;;27.73;49.90;101948.00;5092834;28;20467;-75
2022/08/01 08:09:57;;;;;;;14.75;3.15;;;;;;;27.87;49.27;101942.56;5091990;28;20034;-75
2022/08/01 08:12:22;;;;;;;10.48;2.28;;;;;;;28.08;49.28;101944.81;5092527;28;20023;-75
2022/08/01 08:14:48;;;;;;;9.50;2.70;;;;;;;27.16;51.47;101943.53;5092936;28;20468;-76
2022/08/01 08:17:13;;;;;;;13.55;2.90;;;;;;;28.58;48.09;101936.97;5093159;28;20081;-76
2022/08/01 08:19:39;;;;;;;10.00;3.15;;;;;;;27.66;50.33;101949.38;5092517;28;20020;-76
2022/08/01 08:22:08;;;;;;;7.90;2.33;;;;;;;27.93;48.46;101943.97;5092778;28;20020;-76
2022/08/01 08:24:35;;;;;;;10.07;2.38;;;;;;;27.63;49.03;101957.59;5091466;28;20020;-75
2022/08/01 08:27:01;;;;;;;9.60;2.28;;;;;;;28.03;47.84;101952.34;5093764;28;20086;-75
2022/08/01 08:29:29;;;;;;;10.32;2.00;;;;;;;27.89;47.46;101940.66;5092384;28;20087;-76
2022/08/01 08:31:55;;;;;;;9.13;2.50;;;;;;;28.02;47.43;101939.88;5092760;28;20098;-76
2022/08/01 08:34:21;;;;;;;8.52;2.25;;;;;;;29.71;43.82;101948.69;5092352;28;20024;-76
2022/08/01 08:36:50;;;;;;;12.20;2.08;;;;;;;28.68;46.06;101942.59;5091655;28;20028;-76
2022/08/01 08:39:16;;;;;;;13.75;2.33;;;;;;;27.19;46.77;101954.09;5092236;28;20552;-75
2022/08/01 08:41:41;;;;;;;10.35;2.42;;;;;;;28.58;45.94;101943.22;5093367;28;20107;-76
2022/08/01 08:44:09;;;;;;;11.43;1.73;;;;;;;29.18;44.10;101948.94;5091020;28;20412;-76
2022/08/01 08:46:43;;;;;;;9.80;1.77;;;;;;;31.06;40.93;101957.38;5091855;28;20035;-76
2022/08/01 08:49:11;;;;;;;8.25;1.83;;;;;;;30.63;41.78;101946.28;5093526;28;20038;-76
2022/08/01 08:51:41;;;;;;;10.55;2.17;;;;;;;30.12;41.56;101950.16;5092681;28;20024;-76
2022/08/01 08:54:10;;;;;;;8.90;2.33;;;;;;;30.91;38.79;101954.91;5093146;28;20035;-75
2022/08/01 08:56:37;;;;;;;4.00;1.20;;;;;;;29.03;41.84;101956.25;5091823;28;20054;-75
2022/08/01 08:59:03;;;;;;;6.45;1.80;;;;;;;29.94;41.19;101954.25;5091096;28;20028;-76
2022/08/01 09:01:32;;;;;;;7.07;1.52;;;;;;;30.77;39.18;101961.38;5091650;28;20035;-76
2022/08/01 09:03:57;;;;;;;7.07;1.95;;;;;;;30.66;40.83;101963.22;5091521;28;20085;-75
2022/08/01 09:06:24;;;;;;;8.80;2.33;;;;;;;31.39;38.06;101961.91;5090983;28;20020;-76
2022/08/01 09:08:49;;;;;;;5.18;1.60;;;;;;;30.80;37.90;101968.38;5091291;28;20016;-74
2022/08/01 09:11:15;;;;;;;6.82;1.52;;;;;;;32.06;36.73;101967.28;5091453;28;20110;-76
2022/08/01 09:13:40;;;;;;;7.75;1.45;;;;;;;31.13;37.62;101980.19;5090736;28;20020;-75
2022/08/01 09:16:05;;;;;;;8.75;1.30;;;;;;;34.50;33.82;101964.69;5091253;28;20468;-76
2022/08/01 09:18:34;;;;;;;7.05;1.30;;;;;;;34.95;31.54;101961.28;5092706;28;20073;-76
2022/08/01 09:21:05;;;;;;;5.50;1.15;;;;;;;35.53;30.75;101972.91;5090912;28;20194;-76
2022/08/01 09:23:54;;;;;;;7.28;1.70;;;;;;;33.56;32.92;101985.00;5092406;28;20032;-76
2022/08/01 09:26:29;;;;;;;4.70;1.50;;;;;;;34.10;33.06;101976.53;5081534;28;20384;-75
2022/08/01 09:28:55;;;;;;;12.80;2.03;;;;;;;32.80;33.07;101978.13;5091201;28;20027;-76
2022/08/01 09:31:20;;;;;;;8.77;1.40;;;;;;;31.27;34.98;101988.06;5091122;28;20028;-75
2022/08/01 09:33:52;;;;;;;6.25;1.90;;;;;;;33.39;32.42;101982.97;5091496;28;20027;-75
2022/08/01 09:36:18;;;;;;;12.15;4.15;;;;;;;32.53;33.80;101984.03;5091158;28;20051;-76
2022/08/01 09:38:43;;;;;;;8.25;1.50;;;;;;;32.48;33.90;101989.00;5091068;28;20480;-76
2022/08/01 09:41:11;;;;;;;5.18;1.20;;;;;;;34.60;30.45;101989.94;5091787;28;20030;-75
2022/08/01 09:43:37;;;;;;;11.95;1.65;;;;;;;33.78;31.94;101988.50;5090643;28;20046;-76
2022/08/01 09:46:11;;;;;;;5.95;1.10;;;;;;;35.99;28.98;101997.34;5092364;28;20106;-76
2022/08/01 09:48:40;;;;;;;5.88;1.30;;;;;;;32.42;33.89;101995.78;5090248;28;20407;-75
2022/08/01 09:51:07;;;;;;;7.22;1.65;;;;;;;32.91;33.57;101990.72;5090715;28;20028;-75
2022/08/01 09:53:44;;;;;;;7.90;1.60;;;;;;;34.19;31.67;102002.78;5092187;28;20016;-76
2022/08/01 09:56:10;;;;;;;8.23;1.40;;;;;;;33.76;30.65;102002.16;5090023;28;20114;-76
2022/08/01 09:58:52;;;;;;;8.07;1.55;;;;;;;33.07;32.60;102003.78;5090808;28;20032;-76
2022/08/01 10:01:20;;;;;;;4.20;1.23;;;;;;;34.90;30.88;101990.75;5090217;28;20032;-75
2022/08/01 10:03:46;;;;;;;6.25;1.42;;;;;;;34.71;29.59;102002.47;5090733;28;20039;-76
2022/08/01 10:06:20;;;;;;;7.07;1.58;;;;;;;35.74;29.15;102004.38;5090803;28;20051;-76
2022/08/01 10:08:47;;;;;;;10.45;1.48;;;;;;;34.24;30.39;101997.81;5091036;28;20023;-76
2022/08/01 10:11:12;;;;;;;6.70;1.55;;;;;;;32.50;31.59;101997.00;5090746;28;20395;-76
2022/08/01 10:13:39;;;;;;;6.43;1.30;;;;;;;32.65;31.91;101995.66;5090694;28;20020;-75
2022/08/01 10:16:05;;;;;;;9.55;1.33;;;;;;;33.78;31.75;101999.34;5089739;28;20024;-76
2022/08/01 10:18:33;;;;;;;8.50;1.23;;;;;;;35.69;28.23;101995.81;5091734;28;20028;-76
2022/08/01 10:21:00;;;;;;;6.00;1.90;;;;;;;34.82;28.67;101993.34;5090982;28;20368;-76
2022/08/01 10:23:30;;;;;;;6.15;1.65;;;;;;;35.53;27.76;101991.91;5090072;28;20024;-76
2022/08/01 10:25:58;;;;;;;57.20;5.28;;;;;;;35.23;29.19;101990.31;5090696;28;20028;-76
2022/08/01 10:28:25;;;;;;;8.88;1.67;;;;;;;36.02;29.03;101985.31;5090783;28;20016;-76
2022/08/01 10:30:52;;;;;;;7.25;1.65;;;;;;;33.62;30.63;101984.47;5090251;28;20020;-76
2022/08/01 10:33:17;;;;;;;5.35;1.25;;;;;;;35.11;29.44;101989.66;5090539;28;20024;-76
2022/08/01 10:35:46;;;;;;;4.25;1.30;;;;;;;34.76;29.10;101988.47;5090408;28;20028;-76
2022/08/01 10:38:12;;;;;;;3.13;1.35;;;;;;;34.96;30.28;101987.41;5089619;28;20024;-77
2022/08/01 10:40:39;;;;;;;7.00;1.85;;;;;;;35.32;29.43;102003.03;5091853;28;20033;-76
2022/08/01 10:43:05;;;;;;;7.93;1.80;;;;;;;32.73;31.44;101993.19;5090349;28;20047;-76
2022/08/01 10:45:31;;;;;;;8.70;1.55;;;;;;;33.94;29.67;101991.50;5089964;28;20020;-76
2022/08/01 10:48:09;;;;;;;7.32;1.70;;;;;;;34.29;30.56;102000.06;5090383;28;20039;-77
2022/08/01 10:50:37;;;;;;;7.68;1.55;;;;;;;33.74;30.72;101995.16;5091290;28;20041;-76
2022/08/01 10:53:07;;;;;;;9.02;1.80;;;;;;;32.81;32.20;101993.38;5091812;28;20162;-77
2022/08/01 10:55:46;;;;;;;8.38;1.48;;;;;;;33.03;31.91;101996.91;5090448;28;20051;-76
2022/08/01 10:58:12;;;;;;;4.63;1.30;;;;;;;34.81;29.59;101992.47;5089468;28;20026;-76
2022/08/01 11:00:37;;;;;;;10.60;1.88;;;;;;;34.41;30.83;101989.97;5090384;28;20016;-76
2022/08/01 11:03:03;;;;;;;6.22;1.90;;;;;;;34.59;29.43;101999.06;5090362;28;20024;-77
2022/08/01 11:05:35;;;;;;;8.57;1.92;;;;;;;35.33;30.31;102002.03;5089678;28;20035;-77
2022/08/01 11:08:22;;;;;;;11.07;2.35;;;;;;;34.32;30.00;102014.25;5090219;28;20163;-76
2022/08/01 11:10:47;;;;;;;7.38;1.67;;;;;;;34.92;28.70;102010.44;5090323;28;20024;-76
2022/08/01 11:13:13;;;;;;;8.00;1.58;;;;;;;32.62;32.21;102010.31;5089316;28;20061;-77
2022/08/01 11:15:39;;;;;;;7.70;1.35;;;;;;;32.53;32.46;102002.97;5090150;28;20024;-77
2022/08/01 11:18:27;;;;;;;6.50;1.70;;;;;;;35.26;29.99;102006.34;5090115;28;20058;-77
2022/08/01 11:21:00;;;;;;;5.10;1.30;;;;;;;35.20;29.76;102002.34;5092467;28;20020;-77
2022/08/01 11:23:27;;;;;;;8.60;1.67;;;;;;;33.30;31.38;102009.03;5093538;28;20030;-77